Shine, Washington
Current Conditions -  °F | °C
As of 12:53 AM on Wednesday 26 Nov 2014 (Local Time) from KPAE Reporting Station
Overcast Overcast  
Wind Chill: 12°   Ceiling: 600
Heat Index: 12°   Visibility: 10mi
Dew Point: 11°   Wind: 22mph
Humidity: 93%   Direction: 200°SSW
Pressure: 30.13"   Gusts: 31mph
Location:  47.9628°N, 122.777°W
Report Text: KPAE 260853Z AUTO 20019G27KT 10SM OVC006 12/11 A3013 RMK AO2 PK WND 20027/0846 CIG 004V010 SLP206 T01220111 50001
Loading
Personal Weather Stations






























Interactive Weather Map New forecast layout! Learn more

10-Day Weather Forecast

Advertisements
Track Severe Weather on mobile